sensor_id;sensor_type;location;lat;lon;timestamp;temperature;humidity
68842;SHT35;55849;48.482;2.332;2023-04-28T00:00:52;17.57;78.80
68842;SHT35;55849;48.482;2.332;2023-04-28T00:03:54;17.59;78.69
68842;SHT35;55849;48.482;2.332;2023-04-28T00:06:56;17.59;78.67
68842;SHT35;55849;48.482;2.332;2023-04-28T00:09:58;17.61;78.87
68842;SHT35;55849;48.482;2.332;2023-04-28T00:13:01;17.56;79.11
68842;SHT35;55849;48.482;2.332;2023-04-28T00:16:03;17.59;79.08
68842;SHT35;55849;48.482;2.332;2023-04-28T00:19:05;17.61;78.97
68842;SHT35;55849;48.482;2.332;2023-04-28T00:22:06;17.59;78.87
68842;SHT35;55849;48.482;2.332;2023-04-28T00:25:09;17.57;78.96
68842;SHT35;55849;48.482;2.332;2023-04-28T00:28:11;17.59;78.85
68842;SHT35;55849;48.482;2.332;2023-04-28T00:31:14;17.59;78.99
68842;SHT35;55849;48.482;2.332;2023-04-28T00:34:15;17.62;79.17
68842;SHT35;55849;48.482;2.332;2023-04-28T00:37:17;17.62;79.25
68842;SHT35;55849;48.482;2.332;2023-04-28T00:40:19;17.61;78.78
68842;SHT35;55849;48.482;2.332;2023-04-28T00:43:22;17.62;79.01
68842;SHT35;55849;48.482;2.332;2023-04-28T00:46:25;17.61;79.35
68842;SHT35;55849;48.482;2.332;2023-04-28T00:49:29;17.62;78.79
68842;SHT35;55849;48.482;2.332;2023-04-28T00:52:30;17.61;79.10
68842;SHT35;55849;48.482;2.332;2023-04-28T00:55:34;17.61;78.99
68842;SHT35;55849;48.482;2.332;2023-04-28T00:58:37;17.59;79.28
68842;SHT35;55849;48.482;2.332;2023-04-28T01:01:39;17.62;79.62
68842;SHT35;55849;48.482;2.332;2023-04-28T01:04:40;17.61;79.61
68842;SHT35;55849;48.482;2.332;2023-04-28T01:07:42;17.61;79.94
68842;SHT35;55849;48.482;2.332;2023-04-28T01:10:44;17.59;80.42
68842;SHT35;55849;48.482;2.332;2023-04-28T01:13:47;17.56;80.21
68842;SHT35;55849;48.482;2.332;2023-04-28T01:16:48;17.59;80.75
68842;SHT35;55849;48.482;2.332;2023-04-28T01:19:50;17.57;80.98
68842;SHT35;55849;48.482;2.332;2023-04-28T01:22:52;17.55;81.79
68842;SHT35;55849;48.482;2.332;2023-04-28T01:25:55;17.53;81.63
68842;SHT35;55849;48.482;2.332;2023-04-28T01:28:57;17.53;81.38
68842;SHT35;55849;48.482;2.332;2023-04-28T01:31:59;17.52;81.12
68842;SHT35;55849;48.482;2.332;2023-04-28T01:35:01;17.53;81.40
68842;SHT35;55849;48.482;2.332;2023-04-28T01:38:02;17.52;81.33
68842;SHT35;55849;48.482;2.332;2023-04-28T01:41:05;17.52;81.70
68842;SHT35;55849;48.482;2.332;2023-04-28T01:44:07;17.49;81.60
68842;SHT35;55849;48.482;2.332;2023-04-28T01:47:09;17.52;81.43
68842;SHT35;55849;48.482;2.332;2023-04-28T01:50:10;17.53;81.58
68842;SHT35;55849;48.482;2.332;2023-04-28T01:53:12;17.52;81.46
68842;SHT35;55849;48.482;2.332;2023-04-28T01:56:15;17.53;81.42
68842;SHT35;55849;48.482;2.332;2023-04-28T01:59:17;17.53;81.55
68842;SHT35;55849;48.482;2.332;2023-04-28T02:02:19;17.52;81.85
68842;SHT35;55849;48.482;2.332;2023-04-28T02:05:21;17.49;81.64
68842;SHT35;55849;48.482;2.332;2023-04-28T02:08:22;17.50;82.09
68842;SHT35;55849;48.482;2.332;2023-04-28T02:11:25;17.49;81.73
68842;SHT35;55849;48.482;2.332;2023-04-28T02:14:27;17.50;81.54
68842;SHT35;55849;48.482;2.332;2023-04-28T02:17:31;17.49;81.57
68842;SHT35;55849;48.482;2.332;2023-04-28T02:20:33;17.50;82.44
68842;SHT35;55849;48.482;2.332;2023-04-28T02:23:34;17.50;81.49
68842;SHT35;55849;48.482;2.332;2023-04-28T02:26:37;17.52;81.52
68842;SHT35;55849;48.482;2.332;2023-04-28T02:29:39;17.53;81.43
68842;SHT35;55849;48.482;2.332;2023-04-28T02:32:41;17.53;81.37
68842;SHT35;55849;48.482;2.332;2023-04-28T02:35:42;17.52;81.35
68842;SHT35;55849;48.482;2.332;2023-04-28T02:38:44;17.53;81.37
68842;SHT35;55849;48.482;2.332;2023-04-28T02:41:47;17.50;81.31
68842;SHT35;55849;48.482;2.332;2023-04-28T02:44:49;17.50;81.34
68842;SHT35;55849;48.482;2.332;2023-04-28T02:47:50;17.50;81.34
68842;SHT35;55849;48.482;2.332;2023-04-28T02:50:52;17.50;81.35
68842;SHT35;55849;48.482;2.332;2023-04-28T02:53:53;17.52;81.37
68842;SHT35;55849;48.482;2.332;2023-04-28T02:56:57;17.52;81.37
68842;SHT35;55849;48.482;2.332;2023-04-28T02:59:58;17.52;81.37
68842;SHT35;55849;48.482;2.332;2023-04-28T03:03:00;17.49;81.61
68842;SHT35;55849;48.482;2.332;2023-04-28T03:06:02;17.49;81.50
68842;SHT35;55849;48.482;2.332;2023-04-28T03:09:04;17.50;81.56
68842;SHT35;55849;48.482;2.332;2023-04-28T03:12:07;17.52;81.58
68842;SHT35;55849;48.482;2.332;2023-04-28T03:15:09;17.48;81.57
68842;SHT35;55849;48.482;2.332;2023-04-28T03:18:11;17.46;81.65
68842;SHT35;55849;48.482;2.332;2023-04-28T03:21:12;17.49;81.62
68842;SHT35;55849;48.482;2.332;2023-04-28T03:24:14;17.48;81.51
68842;SHT35;55849;48.482;2.332;2023-04-28T03:27:17;17.46;81.54
68842;SHT35;55849;48.482;2.332;2023-04-28T03:30:19;17.48;81.45
68842;SHT35;55849;48.482;2.332;2023-04-28T03:33:20;17.48;81.44
68842;SHT35;55849;48.482;2.332;2023-04-28T03:36:22;17.49;81.36
68842;SHT35;55849;48.482;2.332;2023-04-28T03:39:23;17.46;81.23
68842;SHT35;55849;48.482;2.332;2023-04-28T03:42:26;17.49;81.32
68842;SHT35;55849;48.482;2.332;2023-04-28T03:45:28;17.49;81.23
68842;SHT35;55849;48.482;2.332;2023-04-28T03:48:30;17.50;81.24
68842;SHT35;55849;48.482;2.332;2023-04-28T03:51:31;17.50;81.27
68842;SHT35;55849;48.482;2.332;2023-04-28T03:54:33;17.49;81.18
68842;SHT35;55849;48.482;2.332;2023-04-28T03:57:36;17.49;81.27
68842;SHT35;55849;48.482;2.332;2023-04-28T04:00:38;17.49;81.27
68842;SHT35;55849;48.482;2.332;2023-04-28T04:03:40;17.46;81.29
68842;SHT35;55849;48.482;2.332;2023-04-28T04:06:41;17.49;81.42
68842;SHT35;55849;48.482;2.332;2023-04-28T04:09:43;17.48;81.32
68842;SHT35;55849;48.482;2.332;2023-04-28T04:12:46;17.49;81.31
68842;SHT35;55849;48.482;2.332;2023-04-28T04:15:48;17.46;81.22
68842;SHT35;55849;48.482;2.332;2023-04-28T04:18:51;17.46;81.39
68842;SHT35;55849;48.482;2.332;2023-04-28T04:21:53;17.45;81.28
68842;SHT35;55849;48.482;2.332;2023-04-28T04:24:55;17.41;81.40
68842;SHT35;55849;48.482;2.332;2023-04-28T04:27:58;17.41;81.43
68842;SHT35;55849;48.482;2.332;2023-04-28T04:30:59;17.41;81.39
68842;SHT35;55849;48.482;2.332;2023-04-28T04:34:02;17.41;81.39
68842;SHT35;55849;48.482;2.332;2023-04-28T04:37:03;17.41;81.43
68842;SHT35;55849;48.482;2.332;2023-04-28T04:40:06;17.36;81.46
68842;SHT35;55849;48.482;2.332;2023-04-28T04:43:09;17.36;81.47
68842;SHT35;55849;48.482;2.332;2023-04-28T04:46:12;17.36;81.56
68842;SHT35;55849;48.482;2.332;2023-04-28T04:49:14;17.35;81.52
68842;SHT35;55849;48.482;2.332;2023-04-28T04:52:16;17.35;81.53
68842;SHT35;55849;48.482;2.332;2023-04-28T04:55:18;17.35;81.47
68842;SHT35;55849;48.482;2.332;2023-04-28T04:58:21;17.34;81.49
68842;SHT35;55849;48.482;2.332;2023-04-28T05:01:23;17.36;81.47
68842;SHT35;55849;48.482;2.332;2023-04-28T05:04:24;17.38;81.46
68842;SHT35;55849;48.482;2.332;2023-04-28T05:07:26;17.39;81.40
68842;SHT35;55849;48.482;2.332;2023-04-28T05:10:27;17.39;81.39
68842;SHT35;55849;48.482;2.332;2023-04-28T05:13:30;17.41;81.39
68842;SHT35;55849;48.482;2.332;2023-04-28T05:16:32;17.42;81.39
68842;SHT35;55849;48.482;2.332;2023-04-28T05:19:34;17.38;81.33
68842;SHT35;55849;48.482;2.332;2023-04-28T05:22:35;17.43;81.28
68842;SHT35;55849;48.482;2.332;2023-04-28T05:25:37;17.42;81.33
68842;SHT35;55849;48.482;2.332;2023-04-28T05:28:40;17.43;81.29
68842;SHT35;55849;48.482;2.332;2023-04-28T05:31:42;17.42;81.30
68842;SHT35;55849;48.482;2.332;2023-04-28T05:34:43;17.42;81.34
68842;SHT35;55849;48.482;2.332;2023-04-28T05:37:45;17.42;81.35
68842;SHT35;55849;48.482;2.332;2023-04-28T05:40:46;17.42;81.28
68842;SHT35;55849;48.482;2.332;2023-04-28T05:43:49;17.43;81.33
68842;SHT35;55849;48.482;2.332;2023-04-28T05:46:51;17.43;81.31
68842;SHT35;55849;48.482;2.332;2023-04-28T05:49:52;17.45;81.26
68842;SHT35;55849;48.482;2.332;2023-04-28T05:52:54;17.46;81.33
68842;SHT35;55849;48.482;2.332;2023-04-28T05:55:56;17.48;81.27
68842;SHT35;55849;48.482;2.332;2023-04-28T05:58:59;17.46;81.28
68842;SHT35;55849;48.482;2.332;2023-04-28T06:02:03;17.46;81.34
68842;SHT35;55849;48.482;2.332;2023-04-28T06:05:06;17.46;81.35
68842;SHT35;55849;48.482;2.332;2023-04-28T06:08:08;17.48;81.38
68842;SHT35;55849;48.482;2.332;2023-04-28T06:11:09;17.49;81.46
68842;SHT35;55849;48.482;2.332;2023-04-28T06:14:12;17.49;81.57
68842;SHT35;55849;48.482;2.332;2023-04-28T06:17:14;17.48;81.61
68842;SHT35;55849;48.482;2.332;2023-04-28T06:20:16;17.52;81.51
68842;SHT35;55849;48.482;2.332;2023-04-28T06:23:17;17.50;81.69
68842;SHT35;55849;48.482;2.332;2023-04-28T06:26:23;17.55;81.48
68842;SHT35;55849;48.482;2.332;2023-04-28T06:29:26;17.56;81.63
68842;SHT35;55849;48.482;2.332;2023-04-28T06:32:27;17.57;81.77
68842;SHT35;55849;48.482;2.332;2023-04-28T06:35:29;17.59;81.81
68842;SHT35;55849;48.482;2.332;2023-04-28T06:38:31;17.61;81.88
68842;SHT35;55849;48.482;2.332;2023-04-28T06:41:32;17.63;81.86
68842;SHT35;55849;48.482;2.332;2023-04-28T06:44:36;17.63;81.96
68842;SHT35;55849;48.482;2.332;2023-04-28T06:47:37;17.65;82.07
68842;SHT35;55849;48.482;2.332;2023-04-28T06:50:39;17.66;82.08
68842;SHT35;55849;48.482;2.332;2023-04-28T06:53:41;17.66;81.91
68842;SHT35;55849;48.482;2.332;2023-04-28T06:56:43;17.70;82.03
68842;SHT35;55849;48.482;2.332;2023-04-28T06:59:46;17.70;81.80
68842;SHT35;55849;48.482;2.332;2023-04-28T07:02:47;17.73;81.93
68842;SHT35;55849;48.482;2.332;2023-04-28T07:05:49;17.74;81.91
68842;SHT35;55849;48.482;2.332;2023-04-28T07:08:50;17.74;81.90
68842;SHT35;55849;48.482;2.332;2023-04-28T07:11:52;17.77;81.94
68842;SHT35;55849;48.482;2.332;2023-04-28T07:14:55;17.77;82.04
68842;SHT35;55849;48.482;2.332;2023-04-28T07:17:57;17.80;81.79
68842;SHT35;55849;48.482;2.332;2023-04-28T07:20:58;17.84;81.92
68842;SHT35;55849;48.482;2.332;2023-04-28T07:24:00;17.86;81.81
68842;SHT35;55849;48.482;2.332;2023-04-28T07:27:02;17.90;82.01
68842;SHT35;55849;48.482;2.332;2023-04-28T07:30:06;17.91;82.09
68842;SHT35;55849;48.482;2.332;2023-04-28T07:33:08;17.96;82.21
68842;SHT35;55849;48.482;2.332;2023-04-28T07:36:10;18.00;82.04
68842;SHT35;55849;48.482;2.332;2023-04-28T07:39:11;17.98;81.86
68842;SHT35;55849;48.482;2.332;2023-04-28T07:42:13;18.04;81.92
68842;SHT35;55849;48.482;2.332;2023-04-28T07:45:16;18.05;81.82
68842;SHT35;55849;48.482;2.332;2023-04-28T07:48:17;18.07;81.77
68842;SHT35;55849;48.482;2.332;2023-04-28T07:51:19;18.11;81.60
68842;SHT35;55849;48.482;2.332;2023-04-28T07:54:21;18.11;81.62
68842;SHT35;55849;48.482;2.332;2023-04-28T07:57:22;18.11;81.33
68842;SHT35;55849;48.482;2.332;2023-04-28T08:00:25;18.12;81.56
68842;SHT35;55849;48.482;2.332;2023-04-28T08:03:27;18.17;81.47
68842;SHT35;55849;48.482;2.332;2023-04-28T08:06:29;18.18;81.58
68842;SHT35;55849;48.482;2.332;2023-04-28T08:09:30;18.22;81.59
68842;SHT35;55849;48.482;2.332;2023-04-28T08:12:32;18.24;81.39
68842;SHT35;55849;48.482;2.332;2023-04-28T08:15:35;18.28;81.47
68842;SHT35;55849;48.482;2.332;2023-04-28T08:18:37;18.31;81.67
68842;SHT35;55849;48.482;2.332;2023-04-28T08:21:39;18.33;81.66
68842;SHT35;55849;48.482;2.332;2023-04-28T08:24:40;18.38;81.75
68842;SHT35;55849;48.482;2.332;2023-04-28T08:27:42;18.42;81.57
68842;SHT35;55849;48.482;2.332;2023-04-28T08:30:45;18.45;81.22
68842;SHT35;55849;48.482;2.332;2023-04-28T08:33:47;18.45;81.18
68842;SHT35;55849;48.482;2.332;2023-04-28T08:36:51;18.49;81.13
68842;SHT35;55849;48.482;2.332;2023-04-28T08:39:52;18.52;81.18
68842;SHT35;55849;48.482;2.332;2023-04-28T08:43:01;18.55;81.45
68842;SHT35;55849;48.482;2.332;2023-04-28T08:46:05;18.57;80.95
68842;SHT35;55849;48.482;2.332;2023-04-28T08:49:12;18.61;80.79
68842;SHT35;55849;48.482;2.332;2023-04-28T08:52:16;18.63;80.69
68842;SHT35;55849;48.482;2.332;2023-04-28T08:55:18;18.63;80.77
68842;SHT35;55849;48.482;2.332;2023-04-28T08:58:21;18.69;80.68
68842;SHT35;55849;48.482;2.332;2023-04-28T09:01:25;18.71;81.00
68842;SHT35;55849;48.482;2.332;2023-04-28T09:04:27;18.77;80.67
68842;SHT35;55849;48.482;2.332;2023-04-28T09:07:28;18.78;80.41
68842;SHT35;55849;48.482;2.332;2023-04-28T09:10:30;18.81;80.37
68842;SHT35;55849;48.482;2.332;2023-04-28T09:13:32;18.85;80.33
68842;SHT35;55849;48.482;2.332;2023-04-28T09:16:40;18.87;80.11
68842;SHT35;55849;48.482;2.332;2023-04-28T09:19:41;18.85;79.56
68842;SHT35;55849;48.482;2.332;2023-04-28T09:22:43;18.84;79.91
68842;SHT35;55849;48.482;2.332;2023-04-28T09:25:55;18.85;79.78
68842;SHT35;55849;48.482;2.332;2023-04-28T09:29:10;18.85;79.82
68842;SHT35;55849;48.482;2.332;2023-04-28T09:32:15;18.87;79.51
68842;SHT35;55849;48.482;2.332;2023-04-28T09:35:37;18.87;79.97
68842;SHT35;55849;48.482;2.332;2023-04-28T09:38:42;18.88;80.01
68842;SHT35;55849;48.482;2.332;2023-04-28T09:41:44;18.88;79.82
68842;SHT35;55849;48.482;2.332;2023-04-28T09:44:52;18.87;79.32
68842;SHT35;55849;48.482;2.332;2023-04-28T09:48:08;18.87;79.49
68842;SHT35;55849;48.482;2.332;2023-04-28T09:51:10;18.84;79.37
68842;SHT35;55849;48.482;2.332;2023-04-28T09:54:12;18.81;79.56
68842;SHT35;55849;48.482;2.332;2023-04-28T09:57:16;18.80;79.69
68842;SHT35;55849;48.482;2.332;2023-04-28T10:00:19;18.78;79.28
68842;SHT35;55849;48.482;2.332;2023-04-28T10:03:24;18.80;79.33
68842;SHT35;55849;48.482;2.332;2023-04-28T10:06:27;18.80;79.37
68842;SHT35;55849;48.482;2.332;2023-04-28T10:09:30;18.85;79.65
68842;SHT35;55849;48.482;2.332;2023-04-28T10:12:32;18.84;79.32
68842;SHT35;55849;48.482;2.332;2023-04-28T10:15:38;18.81;79.55
68842;SHT35;55849;48.482;2.332;2023-04-28T10:18:41;18.84;79.37
68842;SHT35;55849;48.482;2.332;2023-04-28T10:21:49;18.83;79.30
68842;SHT35;55849;48.482;2.332;2023-04-28T10:25:10;18.85;79.47
68842;SHT35;55849;48.482;2.332;2023-04-28T10:28:13;18.87;79.21
68842;SHT35;55849;48.482;2.332;2023-04-28T10:31:17;18.91;79.69
68842;SHT35;55849;48.482;2.332;2023-04-28T10:34:22;18.93;79.44
68842;SHT35;55849;48.482;2.332;2023-04-28T10:38:01;18.97;79.47
68842;SHT35;55849;48.482;2.332;2023-04-28T10:41:04;18.98;79.29
68842;SHT35;55849;48.482;2.332;2023-04-28T10:44:41;19.02;79.55
68842;SHT35;55849;48.482;2.332;2023-04-28T10:48:04;19.07;79.40
68842;SHT35;55849;48.482;2.332;2023-04-28T10:51:37;19.14;79.17
68842;SHT35;55849;48.482;2.332;2023-04-28T10:54:39;19.22;79.27
68842;SHT35;55849;48.482;2.332;2023-04-28T10:57:40;19.28;78.63
68842;SHT35;55849;48.482;2.332;2023-04-28T11:00:43;19.30;77.74
68842;SHT35;55849;48.482;2.332;2023-04-28T11:03:48;19.33;78.54
68842;SHT35;55849;48.482;2.332;2023-04-28T11:07:10;19.35;77.74
68842;SHT35;55849;48.482;2.332;2023-04-28T11:10:13;19.36;77.79
68842;SHT35;55849;48.482;2.332;2023-04-28T11:13:26;19.39;77.52
68842;SHT35;55849;48.482;2.332;2023-04-28T11:16:33;19.42;78.19
68842;SHT35;55849;48.482;2.332;2023-04-28T11:19:48;19.47;78.26
68842;SHT35;55849;48.482;2.332;2023-04-28T11:22:52;19.47;78.07
68842;SHT35;55849;48.482;2.332;2023-04-28T11:25:54;19.52;78.34
68842;SHT35;55849;48.482;2.332;2023-04-28T11:28:56;19.52;77.82
68842;SHT35;55849;48.482;2.332;2023-04-28T11:31:59;19.54;77.63
68842;SHT35;55849;48.482;2.332;2023-04-28T11:35:01;19.57;78.19
68842;SHT35;55849;48.482;2.332;2023-04-28T11:38:04;19.59;77.42
68842;SHT35;55849;48.482;2.332;2023-04-28T11:41:07;19.60;77.79
68842;SHT35;55849;48.482;2.332;2023-04-28T11:44:10;19.62;77.49
68842;SHT35;55849;48.482;2.332;2023-04-28T11:47:12;19.64;77.71
68842;SHT35;55849;48.482;2.332;2023-04-28T11:50:14;19.67;77.33
68842;SHT35;55849;48.482;2.332;2023-04-28T11:53:18;19.70;77.35
68842;SHT35;55849;48.482;2.332;2023-04-28T11:56:19;19.74;77.62
68842;SHT35;55849;48.482;2.332;2023-04-28T11:59:26;19.78;76.69
68842;SHT35;55849;48.482;2.332;2023-04-28T12:02:28;19.81;76.51
68842;SHT35;55849;48.482;2.332;2023-04-28T12:05:29;19.81;77.07
68842;SHT35;55849;48.482;2.332;2023-04-28T12:08:35;19.78;76.93
68842;SHT35;55849;48.482;2.332;2023-04-28T12:11:36;19.78;76.57
68842;SHT35;55849;48.482;2.332;2023-04-28T12:14:54;19.80;77.03
68842;SHT35;55849;48.482;2.332;2023-04-28T12:18:08;19.81;76.89
68842;SHT35;55849;48.482;2.332;2023-04-28T12:21:20;19.82;76.60
68842;SHT35;55849;48.482;2.332;2023-04-28T12:24:23;19.84;76.64
68842;SHT35;55849;48.482;2.332;2023-04-28T12:27:26;19.85;76.18
68842;SHT35;55849;48.482;2.332;2023-04-28T12:30:29;19.88;76.43
68842;SHT35;55849;48.482;2.332;2023-04-28T12:33:34;19.91;76.45
68842;SHT35;55849;48.482;2.332;2023-04-28T12:36:37;19.95;76.75
68842;SHT35;55849;48.482;2.332;2023-04-28T12:39:40;20.04;76.76
68842;SHT35;55849;48.482;2.332;2023-04-28T12:42:42;20.06;76.55
68842;SHT35;55849;48.482;2.332;2023-04-28T12:45:43;20.12;76.30
68842;SHT35;55849;48.482;2.332;2023-04-28T12:48:45;20.13;75.24
68842;SHT35;55849;48.482;2.332;2023-04-28T12:51:47;20.15;75.75
68842;SHT35;55849;48.482;2.332;2023-04-28T12:54:50;20.16;76.05
68842;SHT35;55849;48.482;2.332;2023-04-28T12:57:52;20.19;76.33
68842;SHT35;55849;48.482;2.332;2023-04-28T13:00:53;20.22;76.07
68842;SHT35;55849;48.482;2.332;2023-04-28T13:03:55;20.26;75.82
68842;SHT35;55849;48.482;2.332;2023-04-28T13:06:57;20.36;78.06
68842;SHT35;55849;48.482;2.332;2023-04-28T13:10:00;20.51;77.44
68842;SHT35;55849;48.482;2.332;2023-04-28T13:13:01;20.70;77.26
68842;SHT35;55849;48.482;2.332;2023-04-28T13:16:05;20.92;76.39
68842;SHT35;55849;48.482;2.332;2023-04-28T13:19:06;21.15;75.60
68842;SHT35;55849;48.482;2.332;2023-04-28T13:22:10;21.36;76.15
68842;SHT35;55849;48.482;2.332;2023-04-28T13:25:13;21.60;75.74
68842;SHT35;55849;48.482;2.332;2023-04-28T13:28:15;21.78;74.55
68842;SHT35;55849;48.482;2.332;2023-04-28T13:31:16;21.98;73.47
68842;SHT35;55849;48.482;2.332;2023-04-28T13:34:18;22.10;72.90
68842;SHT35;55849;48.482;2.332;2023-04-28T13:37:20;22.21;72.84
68842;SHT35;55849;48.482;2.332;2023-04-28T13:40:23;22.33;73.09
68842;SHT35;55849;48.482;2.332;2023-04-28T13:43:24;22.41;72.17
68842;SHT35;55849;48.482;2.332;2023-04-28T13:46:26;22.45;70.18
68842;SHT35;55849;48.482;2.332;2023-04-28T13:49:28;22.47;70.76
68842;SHT35;55849;48.482;2.332;2023-04-28T13:52:29;22.50;72.23
68842;SHT35;55849;48.482;2.332;2023-04-28T13:55:32;22.62;71.49
68842;SHT35;55849;48.482;2.332;2023-04-28T13:58:34;22.78;71.14
68842;SHT35;55849;48.482;2.332;2023-04-28T14:01:36;22.94;70.95
68842;SHT35;55849;48.482;2.332;2023-04-28T14:04:37;23.12;71.67
68842;SHT35;55849;48.482;2.332;2023-04-28T14:07:39;23.26;70.47
68842;SHT35;55849;48.482;2.332;2023-04-28T14:10:42;23.48;68.78
68842;SHT35;55849;48.482;2.332;2023-04-28T14:13:44;23.61;68.83
68842;SHT35;55849;48.482;2.332;2023-04-28T14:16:46;23.68;68.52
68842;SHT35;55849;48.482;2.332;2023-04-28T14:19:48;23.75;68.12
68842;SHT35;55849;48.482;2.332;2023-04-28T14:22:49;23.72;68.46
68842;SHT35;55849;48.482;2.332;2023-04-28T14:25:53;23.81;67.91
68842;SHT35;55849;48.482;2.332;2023-04-28T14:28:55;23.88;66.97
68842;SHT35;55849;48.482;2.332;2023-04-28T14:31:56;23.85;66.75
68842;SHT35;55849;48.482;2.332;2023-04-28T14:34:58;23.86;67.99
68842;SHT35;55849;48.482;2.332;2023-04-28T14:38:01;23.90;66.99
68842;SHT35;55849;48.482;2.332;2023-04-28T14:41:04;23.95;66.42
68842;SHT35;55849;48.482;2.332;2023-04-28T14:44:06;24.00;66.17
68842;SHT35;55849;48.482;2.332;2023-04-28T14:47:07;24.03;64.97
68842;SHT35;55849;48.482;2.332;2023-04-28T14:50:09;24.00;66.33
68842;SHT35;55849;48.482;2.332;2023-04-28T14:53:11;24.07;68.62
68842;SHT35;55849;48.482;2.332;2023-04-28T14:56:14;24.18;67.14
68842;SHT35;55849;48.482;2.332;2023-04-28T14:59:16;24.27;65.97
68842;SHT35;55849;48.482;2.332;2023-04-28T15:02:18;24.38;67.58
68842;SHT35;55849;48.482;2.332;2023-04-28T15:05:25;24.55;65.12
68842;SHT35;55849;48.482;2.332;2023-04-28T15:08:27;24.75;64.57
68842;SHT35;55849;48.482;2.332;2023-04-28T15:11:30;24.96;64.57
68842;SHT35;55849;48.482;2.332;2023-04-28T15:14:32;25.04;63.28
68842;SHT35;55849;48.482;2.332;2023-04-28T15:17:33;25.06;62.54
68842;SHT35;55849;48.482;2.332;2023-04-28T15:20:35;24.89;63.20
68842;SHT35;55849;48.482;2.332;2023-04-28T15:23:37;24.83;63.81
68842;SHT35;55849;48.482;2.332;2023-04-28T15:26:41;24.86;63.09
68842;SHT35;55849;48.482;2.332;2023-04-28T15:29:43;24.86;63.21
68842;SHT35;55849;48.482;2.332;2023-04-28T15:32:44;24.77;63.49
68842;SHT35;55849;48.482;2.332;2023-04-28T15:35:46;24.65;63.36
68842;SHT35;55849;48.482;2.332;2023-04-28T15:38:48;24.58;64.27
68842;SHT35;55849;48.482;2.332;2023-04-28T15:41:52;24.45;63.83
68842;SHT35;55849;48.482;2.332;2023-04-28T15:44:55;24.33;63.73
68842;SHT35;55849;48.482;2.332;2023-04-28T15:47:56;24.25;64.54
68842;SHT35;55849;48.482;2.332;2023-04-28T15:50:58;24.20;63.62
68842;SHT35;55849;48.482;2.332;2023-04-28T15:54:00;24.12;64.46
68842;SHT35;55849;48.482;2.332;2023-04-28T15:57:03;24.03;64.48
68842;SHT35;55849;48.482;2.332;2023-04-28T16:00:07;23.95;65.39
68842;SHT35;55849;48.482;2.332;2023-04-28T16:03:09;23.90;65.25
68842;SHT35;55849;48.482;2.332;2023-04-28T16:06:10;23.89;64.95
68842;SHT35;55849;48.482;2.332;2023-04-28T16:09:12;23.93;65.06
68842;SHT35;55849;48.482;2.332;2023-04-28T16:12:15;24.02;64.85
68842;SHT35;55849;48.482;2.332;2023-04-28T16:15:17;24.14;64.74
68842;SHT35;55849;48.482;2.332;2023-04-28T16:18:18;24.17;63.67
68842;SHT35;55849;48.482;2.332;2023-04-28T16:21:20;24.17;64.08
68842;SHT35;55849;48.482;2.332;2023-04-28T16:24:22;24.17;63.78
68842;SHT35;55849;48.482;2.332;2023-04-28T16:27:26;24.13;64.47
68842;SHT35;55849;48.482;2.332;2023-04-28T16:30:28;24.20;64.85
68842;SHT35;55849;48.482;2.332;2023-04-28T16:33:29;24.30;64.78
68842;SHT35;55849;48.482;2.332;2023-04-28T16:36:31;24.45;64.69
68842;SHT35;55849;48.482;2.332;2023-04-28T16:39:33;24.62;64.37
68842;SHT35;55849;48.482;2.332;2023-04-28T16:42:36;24.80;64.39
68842;SHT35;55849;48.482;2.332;2023-04-28T16:45:37;24.90;63.31
68842;SHT35;55849;48.482;2.332;2023-04-28T16:48:39;25.03;63.38
68842;SHT35;55849;48.482;2.332;2023-04-28T16:51:54;24.97;63.51
68842;SHT35;55849;48.482;2.332;2023-04-28T16:54:55;24.89;63.61
68842;SHT35;55849;48.482;2.332;2023-04-28T16:57:59;24.79;63.92
68842;SHT35;55849;48.482;2.332;2023-04-28T17:01:01;24.69;63.26
68842;SHT35;55849;48.482;2.332;2023-04-28T17:04:02;24.58;63.71
68842;SHT35;55849;48.482;2.332;2023-04-28T17:07:06;24.48;64.61
68842;SHT35;55849;48.482;2.332;2023-04-28T17:10:08;24.40;65.38
68842;SHT35;55849;48.482;2.332;2023-04-28T17:13:11;24.35;65.19
68842;SHT35;55849;48.482;2.332;2023-04-28T17:16:13;24.25;64.47
68842;SHT35;55849;48.482;2.332;2023-04-28T17:19:15;24.17;64.18
68842;SHT35;55849;48.482;2.332;2023-04-28T17:22:16;24.07;65.87
68842;SHT35;55849;48.482;2.332;2023-04-28T17:25:21;23.96;64.86
68842;SHT35;55849;48.482;2.332;2023-04-28T17:28:24;23.89;66.02
68842;SHT35;55849;48.482;2.332;2023-04-28T17:31:27;23.79;65.11
68842;SHT35;55849;48.482;2.332;2023-04-28T17:34:29;23.68;65.68
68842;SHT35;55849;48.482;2.332;2023-04-28T17:37:32;23.62;65.37
68842;SHT35;55849;48.482;2.332;2023-04-28T17:40:33;23.55;64.20
68842;SHT35;55849;48.482;2.332;2023-04-28T17:43:36;23.51;64.72
68842;SHT35;55849;48.482;2.332;2023-04-28T17:46:38;23.47;64.53
68842;SHT35;55849;48.482;2.332;2023-04-28T17:49:40;23.40;64.54
68842;SHT35;55849;48.482;2.332;2023-04-28T17:52:42;23.31;64.18
68842;SHT35;55849;48.482;2.332;2023-04-28T17:55:43;23.27;65.30
68842;SHT35;55849;48.482;2.332;2023-04-28T17:58:49;23.17;65.56
68842;SHT35;55849;48.482;2.332;2023-04-28T18:01:51;23.06;65.47
68842;SHT35;55849;48.482;2.332;2023-04-28T18:04:55;22.99;65.47
68842;SHT35;55849;48.482;2.332;2023-04-28T18:07:59;22.85;64.99
68842;SHT35;55849;48.482;2.332;2023-04-28T18:11:04;22.75;66.52
68842;SHT35;55849;48.482;2.332;2023-04-28T18:14:07;22.67;66.41
68842;SHT35;55849;48.482;2.332;2023-04-28T18:17:09;22.55;66.13
68842;SHT35;55849;48.482;2.332;2023-04-28T18:20:11;22.50;66.33
68842;SHT35;55849;48.482;2.332;2023-04-28T18:23:13;22.39;67.21
68842;SHT35;55849;48.482;2.332;2023-04-28T18:26:14;22.29;67.77
68842;SHT35;55849;48.482;2.332;2023-04-28T18:29:17;22.19;67.19
68842;SHT35;55849;48.482;2.332;2023-04-28T18:32:19;22.10;67.53
68842;SHT35;55849;48.482;2.332;2023-04-28T18:35:21;22.02;67.73
68842;SHT35;55849;48.482;2.332;2023-04-28T18:38:22;21.96;68.06
68842;SHT35;55849;48.482;2.332;2023-04-28T18:41:24;21.88;68.64
68842;SHT35;55849;48.482;2.332;2023-04-28T18:44:27;21.81;69.27
68842;SHT35;55849;48.482;2.332;2023-04-28T18:47:29;21.73;68.53
68842;SHT35;55849;48.482;2.332;2023-04-28T18:50:30;21.65;68.66
68842;SHT35;55849;48.482;2.332;2023-04-28T18:53:32;21.60;69.20
68842;SHT35;55849;48.482;2.332;2023-04-28T18:56:34;21.55;69.28
68842;SHT35;55849;48.482;2.332;2023-04-28T18:59:37;21.49;69.44
68842;SHT35;55849;48.482;2.332;2023-04-28T19:02:39;21.41;70.39
68842;SHT35;55849;48.482;2.332;2023-04-28T19:05:41;21.39;68.98
68842;SHT35;55849;48.482;2.332;2023-04-28T19:08:43;21.30;70.69
68842;SHT35;55849;48.482;2.332;2023-04-28T19:11:44;21.25;70.38
68842;SHT35;55849;48.482;2.332;2023-04-28T19:14:47;21.19;70.65